createdAt,value
2023-02-27T00:00:15.133Z,63.89
2023-02-27T00:03:18.253Z,64.13
2023-02-27T00:06:22.301Z,64.26
2023-02-27T00:09:25.462Z,64.57
2023-02-27T00:12:28.013Z,64.63
2023-02-27T00:15:32.298Z,64.36
2023-02-27T00:18:35.249Z,64.30
2023-02-27T00:21:38.567Z,63.20
2023-02-27T00:24:41.402Z,61.85
2023-02-27T00:27:45.149Z,62.09
2023-02-27T00:30:48.114Z,61.86
2023-02-27T00:33:51.125Z,61.66
2023-02-27T00:36:54.112Z,61.99
2023-02-27T00:39:57.397Z,61.75
2023-02-27T00:43:00.218Z,61.85
2023-02-27T00:46:05.497Z,61.97
2023-02-27T00:49:08.805Z,62.06
2023-02-27T00:52:12.220Z,61.91
2023-02-27T00:55:14.903Z,62.18
2023-02-27T00:58:18.838Z,61.89
2023-02-27T01:01:21.653Z,62.51
2023-02-27T01:04:25.473Z,62.57
2023-02-27T01:07:29.293Z,62.57
2023-02-27T01:10:32.849Z,62.50
2023-02-27T01:13:38.412Z,62.19
2023-02-27T01:16:41.194Z,61.98
2023-02-27T01:19:44.075Z,62.28
2023-02-27T01:22:47.048Z,62.20
2023-02-27T01:25:50.172Z,62.54
2023-02-27T01:28:52.919Z,62.67
2023-02-27T01:31:55.565Z,62.43
2023-02-27T01:34:58.782Z,62.13
2023-02-27T01:38:02.406Z,62.04
2023-02-27T01:41:07.299Z,62.10
2023-02-27T01:44:12.109Z,61.18
2023-02-27T01:47:15.106Z,61.07
2023-02-27T01:50:20.202Z,60.44
2023-02-27T01:53:27.175Z,60.45
2023-02-27T01:56:32.134Z,60.85
2023-02-27T01:59:36.842Z,60.53
2023-02-27T02:02:47.694Z,60.62
2023-02-27T02:05:53.770Z,60.14
2023-02-27T02:08:59.705Z,60.44
2023-02-27T02:12:04.202Z,60.36
2023-02-27T02:15:07.654Z,60.40
2023-02-27T02:18:19.519Z,60.01
2023-02-27T02:21:49.446Z,58.93
2023-02-27T02:24:55.318Z,58.98
2023-02-27T02:28:10.710Z,59.76
2023-02-27T02:31:33.520Z,59.70
2023-02-27T02:34:45.597Z,59.23
2023-02-27T02:37:57.611Z,59.41
2023-02-27T02:41:46.906Z,57.86
2023-02-27T02:45:21.502Z,57.70
2023-02-27T02:48:36.510Z,58.05
2023-02-27T02:51:43.459Z,58.23
2023-02-27T02:55:16.855Z,57.79
2023-02-27T02:58:32.882Z,58.58
2023-02-27T03:01:46.321Z,58.47
2023-02-27T03:04:56.004Z,58.24
2023-02-27T03:08:03.676Z,58.74
2023-02-27T03:11:08.566Z,58.73
2023-02-27T03:14:20.028Z,58.91
2023-02-27T03:17:49.586Z,58.78
2023-02-27T03:20:57.608Z,58.44
2023-02-27T03:24:04.888Z,58.69
2023-02-27T03:27:09.621Z,58.52
2023-02-27T03:30:26.374Z,58.62
2023-02-27T03:33:36.239Z,58.40
2023-02-27T03:36:49.696Z,59.01
2023-02-27T03:40:06.836Z,59.22
2023-02-27T03:43:20.885Z,59.00
2023-02-27T03:46:26.783Z,58.28
2023-02-27T03:49:29.941Z,57.91
2023-02-27T03:52:33.575Z,57.59
2023-02-27T03:55:40.166Z,57.85
2023-02-27T03:58:43.944Z,56.56
2023-02-27T04:01:47.860Z,57.10
2023-02-27T04:04:52.457Z,57.26
2023-02-27T04:08:24.663Z,57.43
2023-02-27T04:11:35.835Z,57.77
2023-02-27T04:15:06.542Z,57.82
2023-02-27T04:18:27.739Z,57.75
2023-02-27T04:21:59.274Z,57.43
2023-02-27T04:25:27.916Z,57.41
2023-02-27T04:28:43.652Z,57.05
2023-02-27T04:32:03.165Z,56.67
2023-02-27T04:35:12.869Z,56.43
2023-02-27T04:39:01.327Z,56.70
2023-02-27T04:42:21.838Z,56.09
2023-02-27T04:45:28.836Z,56.00
2023-02-27T04:48:41.674Z,56.40
2023-02-27T04:51:54.281Z,56.50
2023-02-27T04:55:02.070Z,56.46
2023-02-27T04:58:16.709Z,56.50
2023-02-27T05:01:38.150Z,55.85
2023-02-27T05:04:46.516Z,56.04
2023-02-27T05:08:01.248Z,55.98
2023-02-27T05:11:32.519Z,55.69
2023-02-27T05:14:42.852Z,55.72
2023-02-27T05:17:46.166Z,56.03
2023-02-27T05:21:09.466Z,56.30
2023-02-27T05:24:36.491Z,56.39
2023-02-27T05:27:59.526Z,56.14
2023-02-27T05:31:16.153Z,56.88
2023-02-27T05:34:41.492Z,56.44
2023-02-27T05:37:53.430Z,56.41
2023-02-27T05:41:12.281Z,56.99
2023-02-27T05:44:20.115Z,56.23
2023-02-27T05:47:33.619Z,56.26
2023-02-27T05:50:38.933Z,56.48
2023-02-27T05:53:46.444Z,56.22
2023-02-27T05:56:55.316Z,56.79
2023-02-27T06:00:19.159Z,56.98
2023-02-27T06:03:22.929Z,57.45
2023-02-27T06:06:28.084Z,57.33
2023-02-27T06:09:34.678Z,57.24
2023-02-27T06:12:46.151Z,56.79
2023-02-27T06:15:54.908Z,56.67
2023-02-27T06:18:57.741Z,56.22
2023-02-27T06:22:00.553Z,56.53
2023-02-27T06:25:03.863Z,55.27
2023-02-27T06:28:08.126Z,54.71
2023-02-27T06:31:11.602Z,54.28
2023-02-27T06:34:14.989Z,54.43
2023-02-27T06:37:17.751Z,55.05
2023-02-27T06:40:23.217Z,55.14
2023-02-27T06:43:30.156Z,54.13
2023-02-27T06:46:35.335Z,54.80
2023-02-27T06:49:52.113Z,53.58
2023-02-27T06:53:03.952Z,54.05
2023-02-27T06:56:08.389Z,52.76
2023-02-27T06:59:15.842Z,53.67
2023-02-27T07:02:18.724Z,52.82
2023-02-27T07:05:22.099Z,53.68
2023-02-27T07:08:25.842Z,53.46
2023-02-27T07:11:29.971Z,51.95
2023-02-27T07:14:35.094Z,51.54
2023-02-27T07:17:42.314Z,51.89
2023-02-27T07:20:45.358Z,50.76
2023-02-27T07:23:50.533Z,50.24
2023-02-27T07:26:54.055Z,50.30
2023-02-27T07:30:01.779Z,50.92
2023-02-27T07:33:12.351Z,50.72
2023-02-27T07:36:15.931Z,50.15
2023-02-27T07:39:19.560Z,50.69
2023-02-27T07:42:22.860Z,50.76
2023-02-27T07:45:28.710Z,51.07
2023-02-27T07:48:35.269Z,48.66
2023-02-27T07:51:40.058Z,49.71
2023-02-27T07:54:43.565Z,48.39
2023-02-27T07:57:48.291Z,47.76
2023-02-27T08:00:55.168Z,48.43
2023-02-27T08:03:58.606Z,49.69
2023-02-27T08:07:03.272Z,49.17
2023-02-27T08:10:07.112Z,49.23
2023-02-27T08:13:11.998Z,48.69
2023-02-27T08:16:20.218Z,49.42
2023-02-27T08:19:25.173Z,49.59
2023-02-27T08:22:33.441Z,48.64
2023-02-27T08:25:40.537Z,48.47
2023-02-27T08:28:44.820Z,48.52
2023-02-27T08:31:52.730Z,47.34
2023-02-27T08:35:00.206Z,48.60
2023-02-27T08:38:10.529Z,47.20
2023-02-27T08:41:15.260Z,47.60
2023-02-27T08:44:18.022Z,47.86
2023-02-27T08:47:21.305Z,47.85
2023-02-27T08:50:25.974Z,48.38
2023-02-27T08:53:30.454Z,48.62
2023-02-27T08:56:35.128Z,47.23
2023-02-27T08:59:38.572Z,47.78
2023-02-27T09:02:42.678Z,47.26
2023-02-27T09:05:53.548Z,47.25
2023-02-27T09:09:00.352Z,47.81
2023-02-27T09:12:04.655Z,47.20
2023-02-27T09:15:09.082Z,47.89
2023-02-27T09:18:13.953Z,48.32
2023-02-27T09:21:18.648Z,47.97
2023-02-27T09:24:25.204Z,47.10
2023-02-27T09:27:29.289Z,48.28
2023-02-27T09:30:34.202Z,46.35
2023-02-27T09:33:38.501Z,47.00
2023-02-27T09:36:44.237Z,46.71
2023-02-27T09:39:48.567Z,47.09
2023-02-27T09:42:58.233Z,47.67
2023-02-27T09:46:02.341Z,46.14
2023-02-27T09:49:16.969Z,45.12
2023-02-27T09:52:21.839Z,45.07
2023-02-27T09:55:31.061Z,46.09
2023-02-27T09:58:50.379Z,45.37
2023-02-27T10:02:06.326Z,44.80
2023-02-27T10:05:36.440Z,46.02
2023-02-27T10:08:54.225Z,44.43
2023-02-27T10:12:07.567Z,43.33
2023-02-27T10:15:35.561Z,42.45
2023-02-27T10:18:54.383Z,42.36
2023-02-27T10:22:00.452Z,41.38
2023-02-27T10:25:31.354Z,42.25
2023-02-27T10:28:35.853Z,42.63
2023-02-27T10:31:40.474Z,42.02
2023-02-27T10:34:49.569Z,42.63
2023-02-27T10:38:01.280Z,41.77
2023-02-27T10:41:15.112Z,40.93
2023-02-27T10:44:21.462Z,38.43
2023-02-27T10:47:26.018Z,39.08
2023-02-27T10:50:37.067Z,40.23
2023-02-27T10:53:40.408Z,41.11
2023-02-27T10:57:00.136Z,40.62
2023-02-27T11:00:12.211Z,41.09
2023-02-27T11:03:25.828Z,41.61
2023-02-27T11:06:28.757Z,43.24
2023-02-27T11:09:36.798Z,41.82
2023-02-27T11:12:42.255Z,42.37
2023-02-27T11:16:07.102Z,42.43
2023-02-27T11:19:26.762Z,41.54
2023-02-27T11:22:32.336Z,41.31
2023-02-27T11:25:35.974Z,41.10
2023-02-27T11:28:40.074Z,40.65
2023-02-27T11:31:53.174Z,41.24
2023-02-27T11:34:58.540Z,40.60
2023-02-27T11:38:05.358Z,40.26
2023-02-27T11:41:13.015Z,40.64
2023-02-27T11:44:27.384Z,40.87
2023-02-27T11:47:50.453Z,40.23
2023-02-27T11:51:26.322Z,42.29
2023-02-27T11:54:40.418Z,42.87
2023-02-27T11:57:48.595Z,42.23
2023-02-27T12:00:57.452Z,39.60
2023-02-27T12:04:18.166Z,39.90
2023-02-27T12:07:46.782Z,41.33
2023-02-27T12:11:14.767Z,39.50
2023-02-27T12:14:27.551Z,39.86
2023-02-27T12:17:40.961Z,39.73
2023-02-27T12:21:10.048Z,40.51
2023-02-27T12:24:28.560Z,40.39
2023-02-27T12:27:49.049Z,41.72
2023-02-27T12:31:06.476Z,40.01
2023-02-27T12:34:29.561Z,40.53
2023-02-27T12:37:35.826Z,40.74
2023-02-27T12:40:59.797Z,41.46
2023-02-27T12:44:18.796Z,40.77
2023-02-27T12:47:53.675Z,40.53
2023-02-27T12:51:21.663Z,41.72
2023-02-27T12:54:39.650Z,41.37
2023-02-27T12:58:08.118Z,41.59
2023-02-27T13:01:42.714Z,42.22
2023-02-27T13:04:54.899Z,42.56
2023-02-27T13:08:07.363Z,42.93
2023-02-27T13:11:39.154Z,42.30
2023-02-27T13:15:16.132Z,42.93
2023-02-27T13:18:26.125Z,42.10
2023-02-27T13:38:09.991Z,41.16
2023-02-27T13:42:25.333Z,42.52
2023-02-27T13:45:52.350Z,41.69
2023-02-27T13:49:04.766Z,41.34
2023-02-27T13:52:08.563Z,42.36
2023-02-27T13:55:28.730Z,42.65
2023-02-27T13:58:33.195Z,42.67
2023-02-27T14:01:46.072Z,42.63
2023-02-27T14:04:54.567Z,42.85
2023-02-27T14:08:29.561Z,42.14
2023-02-27T14:11:40.292Z,41.87
2023-02-27T14:14:50.204Z,42.47
2023-02-27T14:18:12.608Z,42.65
2023-02-27T14:21:51.532Z,42.98
2023-02-27T14:25:03.592Z,43.49
2023-02-27T14:28:38.356Z,42.38
2023-02-27T14:31:44.732Z,43.32
2023-02-27T14:35:02.114Z,41.65
2023-02-27T14:38:12.166Z,43.07
2023-02-27T14:41:44.870Z,43.40
2023-02-27T14:44:56.974Z,43.18
2023-02-27T14:48:11.384Z,43.19
2023-02-27T14:51:17.735Z,44.13
2023-02-27T14:54:29.327Z,44.42
2023-02-27T14:57:37.328Z,44.02
2023-02-27T15:00:50.833Z,44.01
2023-02-27T15:03:58.339Z,43.97
2023-02-27T15:07:05.584Z,44.58
2023-02-27T15:10:26.060Z,45.86
2023-02-27T15:13:41.551Z,45.49
2023-02-27T15:16:47.275Z,44.55
2023-02-27T15:19:56.917Z,44.98
2023-02-27T15:23:24.342Z,45.33
2023-02-27T15:26:43.103Z,46.41
2023-02-27T15:29:53.124Z,46.53
2023-02-27T15:32:59.259Z,46.82
2023-02-27T15:36:24.033Z,46.82
2023-02-27T15:39:36.104Z,46.79
2023-02-27T15:42:43.346Z,47.53
2023-02-27T15:45:49.156Z,47.61
2023-02-27T15:48:56.193Z,47.58
2023-02-27T15:52:20.291Z,48.25
2023-02-27T15:55:30.137Z,48.21
2023-02-27T15:58:45.024Z,48.18
2023-02-27T16:01:53.068Z,48.46
2023-02-27T16:05:01.277Z,48.96
2023-02-27T16:08:06.987Z,49.30
2023-02-27T16:11:20.084Z,50.23
2023-02-27T16:14:51.995Z,50.55
2023-02-27T16:18:02.117Z,50.82
2023-02-27T16:21:14.521Z,51.18
2023-02-27T16:24:31.036Z,51.37
2023-02-27T16:27:50.474Z,51.42
2023-02-27T16:30:58.695Z,51.90
2023-02-27T16:34:26.121Z,51.49
2023-02-27T16:37:38.944Z,52.38
2023-02-27T16:40:47.597Z,52.29
2023-02-27T16:44:01.250Z,52.99
2023-02-27T16:47:09.538Z,53.48
2023-02-27T16:50:17.624Z,54.37
2023-02-27T16:53:24.532Z,54.65
2023-02-27T16:56:39.420Z,54.70
2023-02-27T16:59:59.125Z,55.22
2023-02-27T17:42:07.298Z,61.46
2023-02-27T17:45:12.543Z,62.47
2023-02-27T17:48:27.163Z,62.66
2023-02-27T17:51:39.079Z,62.71
2023-02-27T17:54:51.742Z,62.77
2023-02-27T17:58:02.058Z,63.54
2023-02-27T18:01:14.080Z,63.58
2023-02-27T18:04:25.700Z,64.23
2023-02-27T18:07:31.092Z,63.95
2023-02-27T18:10:54.079Z,64.64
2023-02-27T18:14:08.413Z,64.66
2023-02-27T18:17:26.073Z,65.18
2023-02-27T18:20:40.468Z,65.34
2023-02-27T18:24:00.996Z,65.61
2023-02-27T18:31:47.077Z,66.53
2023-02-27T18:34:58.739Z,63.72
2023-02-27T18:38:09.094Z,62.53
2023-02-27T18:41:16.250Z,61.69
2023-02-27T18:44:19.579Z,61.56
2023-02-27T18:47:25.670Z,61.96
2023-02-27T18:50:31.310Z,61.84
2023-02-27T18:53:49.181Z,61.57
2023-02-27T18:57:00.784Z,61.66
2023-02-27T19:00:19.109Z,61.70
2023-02-27T19:03:25.178Z,61.18
2023-02-27T19:06:42.350Z,61.63
2023-02-27T19:09:50.356Z,61.93
2023-02-27T19:13:14.402Z,61.71
2023-02-27T19:16:22.228Z,61.46
2023-02-27T19:19:30.040Z,61.22
2023-02-27T19:22:34.130Z,60.99
2023-02-27T19:25:43.621Z,60.96
2023-02-27T19:28:57.393Z,60.62
2023-02-27T19:32:07.699Z,60.35
2023-02-27T19:35:17.288Z,60.39
2023-02-27T19:38:27.712Z,60.18
2023-02-27T19:41:34.255Z,59.89
2023-02-27T19:44:45.152Z,59.62
2023-02-27T19:47:51.060Z,59.66
2023-02-27T19:51:07.506Z,59.55
2023-02-27T19:54:20.003Z,59.75
2023-02-27T19:57:30.752Z,59.51
2023-02-27T20:00:40.292Z,59.71
2023-02-27T20:03:53.063Z,59.78
2023-02-27T20:06:56.368Z,59.92
2023-02-27T20:10:06.454Z,60.32
2023-02-27T20:13:17.011Z,60.14
2023-02-27T20:16:27.444Z,60.26
2023-02-27T20:19:33.063Z,60.58
2023-02-27T20:22:43.540Z,60.51
2023-02-27T20:25:47.987Z,60.24
2023-02-27T20:29:01.087Z,60.27
2023-02-27T20:32:13.279Z,59.97
2023-02-27T20:35:30.281Z,59.87
2023-02-27T20:38:40.200Z,60.10
2023-02-27T20:41:49.369Z,60.19
2023-02-27T20:44:55.747Z,60.30
2023-02-27T20:48:02.076Z,60.52
2023-02-27T20:51:23.461Z,60.32
2023-02-27T20:54:31.117Z,60.96
2023-02-27T20:57:39.538Z,60.47
2023-02-27T21:00:44.636Z,60.04
2023-02-27T21:03:51.382Z,60.33
2023-02-27T21:06:57.128Z,60.86
2023-02-27T21:10:00.045Z,60.49
2023-02-27T21:13:06.039Z,60.66
2023-02-27T21:16:14.077Z,60.63
2023-02-27T21:19:22.731Z,60.75
2023-02-27T21:22:26.285Z,60.99
2023-02-27T21:25:33.363Z,60.99
2023-02-27T21:28:43.074Z,60.80
2023-02-27T21:31:49.116Z,60.79
2023-02-27T21:34:53.286Z,61.02
2023-02-27T21:37:56.772Z,61.23
2023-02-27T21:41:17.004Z,61.63
2023-02-27T21:44:25.254Z,62.16
2023-02-27T21:47:28.998Z,61.83
2023-02-27T21:50:46.245Z,62.03
2023-02-27T21:53:57.040Z,61.93
2023-02-27T21:57:03.216Z,61.75
2023-02-27T22:00:12.006Z,61.75
2023-02-27T22:03:18.513Z,61.60
2023-02-27T22:06:24.755Z,61.57
2023-02-27T22:09:33.181Z,61.84
2023-02-27T22:12:38.256Z,61.93
2023-02-27T22:15:43.066Z,61.99
2023-02-27T22:18:47.854Z,62.36
2023-02-27T22:21:51.602Z,62.48
2023-02-27T22:24:55.214Z,62.47
2023-02-27T22:27:59.915Z,62.43
2023-02-27T22:31:12.198Z,62.46
2023-02-27T22:34:25.284Z,62.76
2023-02-27T22:37:28.742Z,62.96
2023-02-27T22:40:35.988Z,62.79
2023-02-27T22:43:39.845Z,63.43
2023-02-27T22:46:47.098Z,63.82
2023-02-27T22:49:51.384Z,63.61
2023-02-27T22:52:54.929Z,63.66
2023-02-27T22:55:57.438Z,63.88
2023-02-27T22:59:01.314Z,63.79
2023-02-27T23:02:06.413Z,64.30
2023-02-27T23:05:09.870Z,64.02
2023-02-27T23:08:12.748Z,63.94
2023-02-27T23:11:18.503Z,63.90
2023-02-27T23:14:22.536Z,63.77
2023-02-27T23:17:25.432Z,63.67
2023-02-27T23:20:28.059Z,63.79
2023-02-27T23:23:30.781Z,63.86
2023-02-27T23:26:38.177Z,63.59
2023-02-27T23:29:41.245Z,63.37
2023-02-27T23:32:47.235Z,63.57
2023-02-27T23:35:51.963Z,63.92
2023-02-27T23:38:59.104Z,63.59
2023-02-27T23:42:02.404Z,63.81
2023-02-27T23:45:05.795Z,63.91
2023-02-27T23:48:09.286Z,63.91
2023-02-27T23:51:12.358Z,63.96
2023-02-27T23:54:15.733Z,63.53
2023-02-27T23:57:18.262Z,63.50
